Time;durP1;ratioP1;P1;durP2;ratioP2;P2;SDS_P1;SDS_P2;PMS_P1;PMS_P2;Temp;Humidity;BMP_temperature;BMP_pressure;BME280_temperature;BME280_humidity;BME280_pressure;Samples;Min_cycle;Max_cycle;Signal;HPM_P1;HPM_P2
2023/08/17 00:02:14;;;;;;;5.32;4.15;;;;;;;22.26;48.74;93982.84;4990619;28;20076;-77
2023/08/17 00:04:40;;;;;;;6.85;4.65;;;;;;;22.24;48.71;93968.91;4986449;28;20117;-78
2023/08/17 00:07:06;;;;;;;9.00;4.43;;;;;;;22.41;48.64;93980.94;4993401;28;20034;-79
2023/08/17 00:09:32;;;;;;;10.13;4.63;;;;;;;22.42;48.51;93968.94;4991591;28;20038;-81
2023/08/17 00:11:57;;;;;;;7.25;4.40;;;;;;;22.44;48.83;93988.31;4989061;28;20041;-77
2023/08/17 00:14:23;;;;;;;6.35;4.88;;;;;;;22.45;48.42;93974.38;4990865;28;20034;-78
2023/08/17 00:16:51;;;;;;;5.70;4.03;;;;;;;22.34;48.67;93978.97;4996507;28;20043;-81
2023/08/17 00:19:17;;;;;;;12.13;5.05;;;;;;;22.25;49.02;93992.13;4974344;28;20042;-79
2023/08/17 00:21:46;;;;;;;6.82;4.47;;;;;;;22.25;48.85;93984.75;4984464;28;20486;-80
2023/08/17 00:24:12;;;;;;;9.85;4.35;;;;;;;22.36;48.43;93981.31;4988892;28;20032;-79
2023/08/17 00:26:37;;;;;;;6.47;4.03;;;;;;;22.37;48.26;93982.88;4994667;28;20022;-79
2023/08/17 00:29:03;;;;;;;7.88;4.60;;;;;;;22.26;48.10;93980.91;4988925;28;20605;-77
2023/08/17 00:31:29;;;;;;;6.63;3.88;;;;;;;21.98;48.18;93956.41;4991873;28;20126;-79
2023/08/17 00:33:54;;;;;;;5.32;4.25;;;;;;;21.96;48.87;93974.97;4987424;28;20461;-79
2023/08/17 00:36:20;;;;;;;6.55;4.15;;;;;;;22.03;48.67;93980.41;4993996;28;20471;-79
2023/08/17 00:38:45;;;;;;;6.93;4.38;;;;;;;22.25;48.52;93975.84;4991797;28;20031;-78
2023/08/17 00:41:11;;;;;;;7.65;3.40;;;;;;;22.22;48.40;93982.84;4990284;28;20033;-78
2023/08/17 00:43:36;;;;;;;7.20;4.00;;;;;;;22.26;47.95;93972.78;4973850;28;20093;-79
2023/08/17 00:46:02;;;;;;;6.18;4.25;;;;;;;22.29;47.61;93966.56;4988298;28;20042;-76
2023/08/17 00:48:29;;;;;;;8.80;4.55;;;;;;;21.96;47.57;93968.78;4997400;28;20593;-78
2023/08/17 00:50:56;;;;;;;4.78;3.50;;;;;;;22.06;47.65;93960.69;4990143;28;20058;-79
2023/08/17 00:53:22;;;;;;;4.65;3.03;;;;;;;22.12;47.11;93971.94;4992346;28;20444;-80
2023/08/17 00:55:48;;;;;;;6.45;3.75;;;;;;;22.10;46.67;93957.97;4994374;28;20040;-79
2023/08/17 00:58:14;;;;;;;6.90;3.60;;;;;;;22.04;46.54;93963.03;4989296;28;20039;-78
2023/08/17 01:00:40;;;;;;;4.68;2.92;;;;;;;22.03;46.52;93964.16;4994048;28;20028;-80
2023/08/17 01:03:05;;;;;;;7.50;3.45;;;;;;;22.03;46.30;93950.63;4993305;28;20038;-78
2023/08/17 01:05:32;;;;;;;7.25;3.83;;;;;;;22.09;45.73;93957.22;4987686;28;20079;-78
2023/08/17 01:07:58;;;;;;;8.23;3.35;;;;;;;22.19;45.80;93971.97;4990639;28;20057;-78
2023/08/17 01:10:31;;;;;;;6.93;3.38;;;;;;;22.05;45.01;93966.47;4987996;28;20143;-77
2023/08/17 01:13:09;;;;;;;7.90;3.25;;;;;;;22.12;44.94;93964.59;4987911;28;20055;-78
2023/08/17 01:15:43;;;;;;;11.43;3.15;;;;;;;22.13;44.66;93963.44;4984968;28;20039;-79
2023/08/17 01:18:26;;;;;;;3.22;2.90;;;;;;;22.06;44.50;93955.28;4986403;28;20050;-78
2023/08/17 01:20:53;;;;;;;5.05;3.28;;;;;;;22.09;44.21;93957.22;5005166;28;20135;-80
2023/08/17 01:23:19;;;;;;;7.28;2.90;;;;;;;22.14;44.49;93956.88;4996908;28;20026;-78
2023/08/17 01:25:45;;;;;;;4.63;2.92;;;;;;;22.06;44.57;93957.19;4976702;28;20019;-78
2023/08/17 01:28:10;;;;;;;5.57;3.53;;;;;;;21.96;44.43;93941.69;4992597;28;20601;-79
2023/08/17 01:31:00;;;;;;;3.53;2.95;;;;;;;22.08;44.29;93961.09;4990027;28;20328;-80
2023/08/17 01:33:40;;;;;;;5.65;3.50;;;;;;;21.91;44.45;93944.75;4984450;28;20089;-79
2023/08/17 01:36:05;;;;;;;8.10;2.65;;;;;;;22.01;44.33;93954.84;4981693;28;20126;-78
2023/08/17 01:38:32;;;;;;;4.97;3.42;;;;;;;21.92;44.44;93938.97;4988243;28;20038;-77
2023/08/17 01:41:00;;;;;;;7.60;3.00;;;;;;;21.94;43.97;93944.03;4993513;28;20469;-79
2023/08/17 01:43:27;;;;;;;3.33;3.00;;;;;;;21.91;44.20;93942.06;4984561;28;20039;-78
2023/08/17 01:45:52;;;;;;;4.43;2.70;;;;;;;21.77;44.12;93961.72;4985008;28;20043;-80
2023/08/17 01:48:17;;;;;;;5.65;2.25;;;;;;;21.77;43.58;93953.59;4997659;28;20540;-80
2023/08/17 01:50:43;;;;;;;5.22;2.75;;;;;;;21.70;43.13;93946.25;4988610;28;20096;-78
2023/08/17 01:53:09;;;;;;;5.72;2.15;;;;;;;21.78;42.54;93938.94;4989203;28;20100;-78
2023/08/17 01:55:35;;;;;;;5.75;2.25;;;;;;;21.71;42.22;93947.00;4992010;28;20531;-79
2023/08/17 01:58:01;;;;;;;5.20;2.30;;;;;;;21.87;42.12;93955.59;4986723;28;20042;-81
2023/08/17 02:00:26;;;;;;;3.63;2.20;;;;;;;21.88;41.93;93949.03;4991307;28;20070;-79
2023/08/17 02:02:51;;;;;;;3.47;2.45;;;;;;;21.76;42.74;93938.53;4990752;28;20471;-78
2023/08/17 02:05:17;;;;;;;2.88;2.28;;;;;;;21.65;42.80;93933.09;4990783;28;20053;-77
2023/08/17 02:07:42;;;;;;;4.10;2.08;;;;;;;21.62;42.34;93957.41;4993991;28;20038;-78
2023/08/17 02:10:08;;;;;;;4.63;2.55;;;;;;;21.70;42.67;93953.59;4988905;28;20533;-80
2023/08/17 02:12:33;;;;;;;4.82;2.30;;;;;;;21.58;42.89;93943.09;4995430;28;20068;-77
2023/08/17 02:14:59;;;;;;;4.53;2.50;;;;;;;21.72;43.18;93962.09;5000196;28;20048;-80
2023/08/17 02:17:24;;;;;;;3.33;2.58;;;;;;;21.78;43.42;93957.88;4995846;28;20113;-78
2023/08/17 02:19:49;;;;;;;2.92;2.17;;;;;;;21.43;43.79;93937.56;4992443;28;20026;-79
2023/08/17 02:22:15;;;;;;;4.05;2.50;;;;;;;21.57;43.62;93942.31;4987597;28;20174;-78
2023/08/17 02:24:40;;;;;;;2.80;2.25;;;;;;;21.66;43.36;93945.44;4990490;28;20077;-78
2023/08/17 02:27:06;;;;;;;3.95;2.45;;;;;;;21.70;43.16;93946.25;4989110;28;20461;-78
2023/08/17 02:29:32;;;;;;;4.53;2.70;;;;;;;21.70;43.47;93956.31;4992123;28;20037;-80
2023/08/17 02:31:57;;;;;;;4.28;2.30;;;;;;;21.64;43.58;93947.00;4996899;28;20066;-80
2023/08/17 02:34:23;;;;;;;4.47;2.70;;;;;;;21.52;43.92;93931.03;4987733;28;20042;-78
2023/08/17 02:36:48;;;;;;;6.13;2.53;;;;;;;21.36;43.95;93932.09;4992631;28;20073;-78
2023/08/17 02:39:13;;;;;;;3.83;2.50;;;;;;;21.36;44.18;93931.38;4985105;28;20031;-78
2023/08/17 02:41:39;;;;;;;4.72;3.15;;;;;;;21.48;44.35;93949.97;4991061;28;20111;-78
2023/08/17 02:44:04;;;;;;;4.13;2.72;;;;;;;21.27;44.28;93926.25;4990941;28;20022;-78
2023/08/17 02:46:30;;;;;;;3.25;2.63;;;;;;;21.37;44.45;93944.50;4996373;28;20157;-78
2023/08/17 02:48:55;;;;;;;4.05;2.55;;;;;;;21.38;44.45;93934.44;4987773;28;20477;-80
2023/08/17 02:51:21;;;;;;;6.43;2.70;;;;;;;21.42;44.74;93946.84;4998707;28;20496;-80
2023/08/17 02:53:46;;;;;;;3.75;2.25;;;;;;;21.10;44.92;93901.84;4991975;28;20045;-80
2023/08/17 02:56:12;;;;;;;3.55;2.10;;;;;;;21.28;44.84;93946.75;4993016;28;20427;-77
2023/08/17 02:58:41;;;;;;;3.30;2.08;;;;;;;21.23;44.62;93936.28;4999803;28;20032;-78
2023/08/17 03:01:07;;;;;;;4.43;2.60;;;;;;;21.27;44.80;93945.19;4988066;28;20128;-79
2023/08/17 03:03:32;;;;;;;3.47;2.63;;;;;;;21.19;44.67;93937.44;4989127;28;20043;-78
2023/08/17 03:05:58;;;;;;;3.60;2.83;;;;;;;21.13;44.95;93944.34;4988873;28;20106;-78
2023/08/17 03:08:23;;;;;;;3.20;2.20;;;;;;;20.95;45.17;93917.97;4989608;28;20084;-78
2023/08/17 03:10:48;;;;;;;7.57;2.40;;;;;;;20.96;44.72;93926.84;4988723;28;20506;-77
2023/08/17 03:13:14;;;;;;;3.78;2.78;;;;;;;20.98;44.82;93921.84;4988154;28;20039;-78
2023/08/17 03:15:40;;;;;;;6.75;2.30;;;;;;;20.86;45.01;93916.72;4994417;28;20030;-77
2023/08/17 03:18:06;;;;;;;4.35;2.65;;;;;;;20.89;44.89;93922.16;4992780;28;20562;-79
2023/08/17 03:20:31;;;;;;;4.45;2.35;;;;;;;21.01;44.58;93940.03;4989658;28;21043;-80
2023/08/17 03:22:56;;;;;;;5.90;2.17;;;;;;;20.99;44.45;93943.09;4991374;28;20650;-77
2023/08/17 03:25:22;;;;;;;11.10;2.55;;;;;;;20.91;44.70;93935.31;4988458;28;20031;-78
2023/08/17 03:27:47;;;;;;;4.47;2.20;;;;;;;20.77;44.61;93908.16;4994366;28;20048;-80
2023/08/17 03:30:13;;;;;;;4.00;2.33;;;;;;;20.80;44.89;93920.91;4991273;28;20069;-80
2023/08/17 03:32:38;;;;;;;3.75;2.42;;;;;;;20.87;44.84;93948.03;4988374;28;20026;-76
2023/08/17 03:35:04;;;;;;;4.55;2.42;;;;;;;20.79;44.91;93936.34;4989888;28;20133;-78
2023/08/17 03:37:29;;;;;;;4.80;2.25;;;;;;;20.76;45.02;93939.03;4990296;28;20034;-80
2023/08/17 03:39:55;;;;;;;8.00;2.70;;;;;;;20.72;44.91;93939.00;4996758;28;20050;-79
2023/08/17 03:42:20;;;;;;;4.93;2.40;;;;;;;20.67;44.89;93938.56;5005906;28;20673;-78
2023/08/17 03:44:46;;;;;;;3.72;2.15;;;;;;;20.68;45.22;93953.63;4992981;28;20070;-78
2023/08/17 03:47:11;;;;;;;3.10;2.15;;;;;;;20.68;44.98;93957.09;4992464;28;21501;-78
2023/08/17 03:49:36;;;;;;;2.95;2.03;;;;;;;20.47;45.45;93924.50;4994592;28;20054;-78
2023/08/17 03:52:02;;;;;;;7.38;2.08;;;;;;;20.49;45.35;93943.81;4994956;28;20038;-80
2023/08/17 03:54:27;;;;;;;3.10;2.33;;;;;;;20.60;44.95;93961.66;4992162;28;20042;-77
2023/08/17 03:56:53;;;;;;;4.32;2.25;;;;;;;20.57;44.83;93973.22;4991754;28;20176;-78
2023/08/17 03:59:18;;;;;;;4.00;2.00;;;;;;;20.49;44.60;93952.69;4991562;28;20114;-80
2023/08/17 04:01:43;;;;;;;5.47;1.90;;;;;;;20.61;44.26;93965.16;4991869;28;20094;-77
2023/08/17 04:04:09;;;;;;;3.47;2.25;;;;;;;20.45;44.67;93938.38;4991203;28;20563;-78
2023/08/17 04:06:35;;;;;;;6.85;2.38;;;;;;;20.57;43.88;93962.44;4992744;28;20038;-79
2023/08/17 04:09:01;;;;;;;3.67;1.98;;;;;;;20.56;43.95;93977.06;4994502;28;20046;-81
2023/08/17 04:11:26;;;;;;;5.25;2.60;;;;;;;20.45;43.67;93954.59;4986729;28;20446;-79
2023/08/17 04:13:52;;;;;;;7.35;2.53;;;;;;;20.63;43.93;93970.94;4994777;28;20033;-80
2023/08/17 04:16:17;;;;;;;8.00;2.05;;;;;;;20.65;43.58;93951.66;4994884;28;20030;-78
2023/08/17 04:18:42;;;;;;;4.65;2.10;;;;;;;20.82;43.99;93969.97;4990531;28;20545;-78
2023/08/17 04:21:08;;;;;;;4.03;1.92;;;;;;;20.81;43.50;93965.72;4989821;28;20037;-78
2023/08/17 04:23:33;;;;;;;4.28;1.83;;;;;;;20.74;43.27;93935.91;4995358;28;20020;-78
2023/08/17 04:25:59;;;;;;;4.05;2.53;;;;;;;20.89;43.45;93957.31;4994806;28;20539;-80
2023/08/17 04:28:24;;;;;;;4.38;2.22;;;;;;;20.69;43.53;93922.75;4989559;28;20533;-80
2023/08/17 04:30:49;;;;;;;14.00;2.88;;;;;;;20.99;43.85;93955.84;4995428;28;20043;-79
2023/08/17 04:33:15;;;;;;;3.92;1.95;;;;;;;21.10;43.84;93967.50;4988163;28;20482;-79
2023/08/17 04:35:40;;;;;;;4.57;2.25;;;;;;;21.08;43.95;93948.16;4992814;28;20498;-78
2023/08/17 04:38:06;;;;;;;4.95;2.28;;;;;;;21.17;44.46;93950.56;4991480;28;20566;-78
2023/08/17 04:40:32;;;;;;;5.18;2.42;;;;;;;21.31;44.65;93969.59;4987129;28;20048;-79
2023/08/17 04:42:57;;;;;;;8.90;2.70;;;;;;;21.26;44.66;93959.91;4991402;28;20042;-77
2023/08/17 04:45:23;;;;;;;8.93;2.80;;;;;;;21.28;44.04;93935.94;4994486;28;20429;-78
2023/08/17 04:47:49;;;;;;;5.30;2.38;;;;;;;21.53;44.29;93967.78;4988044;28;20046;-78
2023/08/17 04:50:16;;;;;;;7.32;3.00;;;;;;;21.55;44.56;93954.69;4978145;28;20022;-79
2023/08/17 04:52:43;;;;;;;7.80;3.13;;;;;;;21.62;44.72;93973.66;4987544;28;20045;-78
2023/08/17 04:55:09;;;;;;;7.07;3.67;;;;;;;21.58;45.09;93970.94;4985787;28;20082;-82
2023/08/17 04:57:34;;;;;;;10.65;3.75;;;;;;;21.53;45.13;93951.53;4992746;28;20692;-80
2023/08/17 04:59:59;;;;;;;10.15;3.40;;;;;;;21.62;45.12;93966.31;4996513;28;20042;-78
2023/08/17 05:02:25;;;;;;;11.27;4.22;;;;;;;21.70;45.40;93967.13;4992694;28;20032;-78
2023/08/17 05:04:50;;;;;;;11.52;3.55;;;;;;;21.66;44.64;93956.25;4993603;28;20037;-78
2023/08/17 05:07:16;;;;;;;9.05;3.30;;;;;;;21.77;43.16;93951.69;4989541;28;20049;-78
2023/08/17 05:09:41;;;;;;;5.05;2.67;;;;;;;21.63;43.78;93943.50;4983797;28;20540;-79
2023/08/17 05:12:07;;;;;;;10.63;3.47;;;;;;;21.89;43.69;93958.72;4997709;28;20054;-78
2023/08/17 05:14:32;;;;;;;8.68;3.53;;;;;;;21.87;45.26;93953.66;4985661;28;20037;-79
2023/08/17 05:16:57;;;;;;;6.50;3.63;;;;;;;21.98;45.90;93971.88;4993929;28;20058;-78
2023/08/17 05:19:23;;;;;;;4.55;3.85;;;;;;;21.85;45.68;93963.34;4987907;28;20630;-77
2023/08/17 05:21:50;;;;;;;8.93;4.18;;;;;;;22.04;45.42;93973.06;4978036;28;20034;-78
2023/08/17 05:24:15;;;;;;;13.60;3.30;;;;;;;21.88;46.17;93978.81;4984856;28;20684;-78
2023/08/17 05:26:41;;;;;;;5.95;4.18;;;;;;;21.90;46.32;93971.09;4985018;28;21557;-80
2023/08/17 05:29:06;;;;;;;19.00;5.72;;;;;;;21.80;46.73;93972.56;4994376;28;20490;-78
2023/08/17 05:31:31;;;;;;;7.45;4.53;;;;;;;21.88;46.74;93967.97;4989878;28;20068;-79
2023/08/17 05:33:57;;;;;;;9.27;4.30;;;;;;;21.98;46.93;93961.84;4989972;28;20050;-78
2023/08/17 05:36:22;;;;;;;10.85;4.90;;;;;;;22.07;47.01;93964.94;4987729;28;20175;-78
2023/08/17 05:38:48;;;;;;;7.80;5.00;;;;;;;22.07;47.66;93964.16;4997886;28;20064;-78
2023/08/17 05:41:13;;;;;;;6.93;4.25;;;;;;;22.25;46.70;93971.22;4988300;28;20457;-79
2023/08/17 05:43:38;;;;;;;9.63;5.10;;;;;;;22.31;47.16;93974.34;4991232;28;20513;-79
2023/08/17 05:46:04;;;;;;;11.40;4.75;;;;;;;22.12;47.24;93971.94;4984868;28;20490;-78
2023/08/17 05:48:29;;;;;;;10.32;5.40;;;;;;;22.37;47.15;93980.94;4986776;28;20049;-79
2023/08/17 05:50:56;;;;;;;12.07;5.72;;;;;;;22.52;47.80;93979.81;4988560;28;20464;-79
2023/08/17 05:53:22;;;;;;;14.30;5.20;;;;;;;22.59;47.60;93984.44;4990408;28;20050;-77
2023/08/17 05:55:47;;;;;;;14.93;5.13;;;;;;;22.49;47.29;93968.94;4988367;28;20114;-78
2023/08/17 05:58:12;;;;;;;13.10;5.45;;;;;;;22.60;47.43;93981.38;4995066;28;20982;-79
2023/08/17 06:00:38;;;;;;;14.10;5.63;;;;;;;22.73;47.86;93998.06;4991957;28;20045;-78
2023/08/17 06:03:04;;;;;;;22.85;5.72;;;;;;;22.87;45.84;93995.38;4999051;28;20492;-79
2023/08/17 06:05:30;;;;;;;12.65;3.70;;;;;;;22.98;45.80;93989.94;4994741;28;20019;-78
2023/08/17 06:07:56;;;;;;;9.23;4.93;;;;;;;22.88;45.19;93983.34;4990509;28;20030;-80
2023/08/17 06:10:26;;;;;;;9.30;5.40;;;;;;;22.95;45.64;93980.66;4990999;28;20541;-78
2023/08/17 06:12:55;;;;;;;4.57;3.92;;;;;;;23.06;45.58;93984.16;4991876;28;20035;-79
2023/08/17 06:15:21;;;;;;;11.77;4.57;;;;;;;23.15;45.61;93989.97;5010452;28;20045;-82
2023/08/17 06:17:49;;;;;;;7.78;4.47;;;;;;;23.28;45.12;93993.03;4998582;28;20061;-81
2023/08/17 06:20:15;;;;;;;8.45;4.80;;;;;;;23.30;45.15;93985.28;4993467;28;20075;-78
2023/08/17 06:22:40;;;;;;;9.60;3.97;;;;;;;23.44;45.83;93985.28;4990511;28;20574;-78
2023/08/17 06:25:07;;;;;;;8.95;4.10;;;;;;;23.30;45.72;93985.28;4996174;28;20026;-80
2023/08/17 06:27:33;;;;;;;6.18;4.15;;;;;;;22.98;46.21;93993.44;4996162;28;20074;-78
2023/08/17 06:30:08;;;;;;;10.23;5.22;;;;;;;23.05;46.09;93977.16;4992390;28;20130;-79
2023/08/17 06:32:33;;;;;;;13.38;4.25;;;;;;;23.25;45.31;93990.34;5000684;28;20030;-78
2023/08/17 06:34:58;;;;;;;10.35;4.47;;;;;;;23.54;45.22;93984.50;4991275;28;20502;-79
2023/08/17 06:37:24;;;;;;;12.73;4.30;;;;;;;23.74;45.01;94000.38;4998774;28;20149;-79
2023/08/17 06:39:49;;;;;;;12.07;4.15;;;;;;;23.82;44.98;93988.31;4994888;28;20083;-79
2023/08/17 06:42:15;;;;;;;10.65;4.43;;;;;;;23.89;44.84;93982.88;4993384;28;20115;-78
2023/08/17 06:44:40;;;;;;;7.32;4.53;;;;;;;24.07;44.56;93994.44;4999198;28;20869;-77
2023/08/17 06:47:06;;;;;;;6.68;4.03;;;;;;;23.95;44.50;93954.88;4994596;28;20105;-80
2023/08/17 06:49:31;;;;;;;9.57;3.72;;;;;;;23.94;42.90;93969.66;4993203;28;20038;-80
2023/08/17 06:51:56;;;;;;;8.48;4.10;;;;;;;23.92;43.18;93993.69;4995613;28;20042;-80
2023/08/17 06:54:22;;;;;;;6.72;3.13;;;;;;;23.93;42.93;93989.84;4987305;28;20224;-77
2023/08/17 06:56:48;;;;;;;7.45;4.65;;;;;;;24.01;43.37;93987.84;4974619;28;20424;-80
2023/08/17 06:59:13;;;;;;;8.63;3.40;;;;;;;23.90;43.56;93970.84;4991234;28;20037;-77
2023/08/17 07:01:39;;;;;;;12.43;3.58;;;;;;;23.69;43.56;93968.97;4991674;28;20426;-79
2023/08/17 07:04:05;;;;;;;11.90;3.92;;;;;;;24.11;43.16;93976.19;4994657;28;20129;-78
2023/08/17 07:06:30;;;;;;;8.23;3.13;;;;;;;24.12;42.66;93979.69;4994703;28;20030;-79
2023/08/17 07:08:56;;;;;;;11.80;3.65;;;;;;;23.95;43.67;93963.03;4995335;28;20028;-79
2023/08/17 07:11:22;;;;;;;11.52;4.50;;;;;;;24.14;42.56;93977.38;4992819;28;20026;-79
2023/08/17 07:13:47;;;;;;;8.35;3.85;;;;;;;23.59;42.98;93983.34;4996490;28;20619;-81
2023/08/17 07:16:13;;;;;;;6.32;3.65;;;;;;;23.96;43.63;93989.03;4985669;28;21267;-80
2023/08/17 07:18:38;;;;;;;8.27;4.15;;;;;;;23.80;42.56;93947.97;4990701;28;20034;-79
2023/08/17 07:21:04;;;;;;;10.70;2.88;;;;;;;23.90;42.32;93979.75;4988927;28;20390;-79
2023/08/17 07:23:30;;;;;;;14.05;4.68;;;;;;;23.97;42.71;93984.38;4997495;28;20052;-79
2023/08/17 07:25:55;;;;;;;6.15;4.00;;;;;;;24.10;42.09;93976.56;4996683;28;20354;-80
2023/08/17 07:28:20;;;;;;;5.47;3.05;;;;;;;24.28;40.79;93986.22;4989876;28;20077;-81
2023/08/17 07:30:46;;;;;;;6.88;3.00;;;;;;;24.16;40.54;93973.06;4995020;28;20597;-79
2023/08/17 07:33:11;;;;;;;6.40;3.22;;;;;;;24.31;40.84;93960.19;4990944;28;20038;-82
2023/08/17 07:35:37;;;;;;;4.72;2.97;;;;;;;24.19;39.66;93952.50;4991196;28;20610;-80
2023/08/17 07:38:02;;;;;;;5.80;3.13;;;;;;;24.17;39.75;93977.34;4991803;28;20018;-81
2023/08/17 07:40:28;;;;;;;9.23;2.58;;;;;;;23.89;39.71;93963.84;4992124;28;20556;-81
2023/08/17 07:42:53;;;;;;;8.00;2.47;;;;;;;24.25;39.85;93972.63;4983383;28;20080;-80
2023/08/17 07:45:19;;;;;;;9.32;2.78;;;;;;;24.23;39.30;93974.97;4989783;28;20034;-82
2023/08/17 07:47:44;;;;;;;18.88;3.95;;;;;;;24.06;39.64;93957.56;4992349;28;20046;-80
2023/08/17 07:50:09;;;;;;;17.90;3.08;;;;;;;24.32;39.49;93965.22;4990885;28;20029;-80
2023/08/17 07:52:35;;;;;;;17.83;4.88;;;;;;;24.16;39.39;93972.28;4988790;28;20032;-80
2023/08/17 07:55:00;;;;;;;5.65;2.50;;;;;;;24.38;39.96;93973.75;4993747;28;20080;-81
2023/08/17 07:57:26;;;;;;;12.85;3.45;;;;;;;24.07;39.56;93950.97;4991439;28;20469;-80
2023/08/17 07:59:53;;;;;;;8.93;3.08;;;;;;;24.15;39.39;93971.50;4992496;28;20159;-79
2023/08/17 08:02:19;;;;;;;6.03;3.08;;;;;;;23.94;40.32;93968.88;4987517;28;20046;-80
2023/08/17 08:04:44;;;;;;;7.30;3.10;;;;;;;24.32;40.45;93961.75;4991655;28;20146;-79
2023/08/17 08:07:10;;;;;;;7.70;3.50;;;;;;;24.36;40.30;93951.63;4994975;28;20237;-79
2023/08/17 08:09:35;;;;;;;7.05;3.08;;;;;;;24.52;39.94;93962.78;4994074;28;20038;-80
2023/08/17 08:12:01;;;;;;;4.40;2.88;;;;;;;24.49;40.36;93955.44;4994305;28;20583;-81
2023/08/17 08:14:27;;;;;;;10.52;3.75;;;;;;;24.43;41.55;93938.00;4995174;28;20026;-79
2023/08/17 08:16:52;;;;;;;7.18;3.40;;;;;;;24.32;41.10;93948.16;4989474;28;21360;-79
2023/08/17 08:19:17;;;;;;;9.15;3.78;;;;;;;24.61;41.16;93952.25;4994490;28;20133;-81
2023/08/17 08:21:43;;;;;;;11.10;4.28;;;;;;;24.52;40.98;93935.59;4992115;28;20054;-78
2023/08/17 08:24:08;;;;;;;5.45;3.33;;;;;;;24.46;40.68;93945.34;4992283;28;20121;-79
2023/08/17 08:26:34;;;;;;;4.88;2.70;;;;;;;24.18;41.16;93934.63;4991296;28;20109;-78
2023/08/17 08:28:59;;;;;;;20.63;4.50;;;;;;;24.24;41.70;93960.25;4993527;28;20484;-79
2023/08/17 08:31:25;;;;;;;13.25;4.53;;;;;;;24.50;40.96;93945.31;4988182;28;20034;-78
2023/08/17 08:33:51;;;;;;;9.27;4.13;;;;;;;24.51;40.81;93955.78;4993850;28;20114;-78
2023/08/17 08:36:17;;;;;;;10.68;3.53;;;;;;;24.39;41.15;93945.41;4986760;28;20057;-78
2023/08/17 08:38:42;;;;;;;6.70;3.42;;;;;;;24.23;41.16;93936.94;4992346;28;20019;-81
2023/08/17 08:41:09;;;;;;;6.45;3.40;;;;;;;24.16;41.62;93945.91;4989205;28;20478;-80
2023/08/17 08:43:35;;;;;;;8.90;3.60;;;;;;;24.22;41.77;93954.41;4986416;28;20503;-80
2023/08/17 08:46:00;;;;;;;4.07;3.53;;;;;;;23.95;41.45;93925.00;4988148;28;20636;-78
2023/08/17 08:48:27;;;;;;;8.55;3.85;;;;;;;23.92;42.05;93949.47;4991894;28;20034;-78
2023/08/17 08:50:55;;;;;;;6.28;3.58;;;;;;;23.64;42.16;93936.78;4987903;28;20065;-78
2023/08/17 08:53:28;;;;;;;7.88;3.50;;;;;;;23.82;41.83;93955.72;4996337;28;20031;-78
2023/08/17 08:55:59;;;;;;;7.78;3.72;;;;;;;23.74;42.18;93938.69;4988595;28;20049;-82
2023/08/17 08:58:29;;;;;;;6.20;3.60;;;;;;;24.12;42.63;93930.78;4991224;28;21008;-77
2023/08/17 09:00:57;;;;;;;7.47;3.72;;;;;;;24.14;42.33;93944.75;4977070;28;20614;-76
2023/08/17 09:03:25;;;;;;;5.55;3.70;;;;;;;24.18;41.96;93926.50;4986341;28;20050;-77
2023/08/17 09:05:51;;;;;;;9.57;3.58;;;;;;;24.42;42.27;93937.22;5007449;28;20038;-80
2023/08/17 09:08:22;;;;;;;4.68;3.25;;;;;;;24.36;41.79;93941.53;4987180;28;20147;-77
2023/08/17 09:10:49;;;;;;;14.00;4.20;;;;;;;24.27;41.84;93926.81;4988970;28;20048;-77
2023/08/17 09:13:15;;;;;;;11.90;4.60;;;;;;;24.35;41.69;93914.72;4991502;28;20028;-77
2023/08/17 09:15:40;;;;;;;6.72;3.90;;;;;;;24.50;41.18;93913.47;4987992;28;20109;-76
2023/08/17 09:18:07;;;;;;;10.68;4.10;;;;;;;24.50;40.42;93929.00;4984823;28;20099;-79
2023/08/17 09:20:44;;;;;;;15.30;3.55;;;;;;;24.26;41.33;93892.66;4988461;28;20035;-77
2023/08/17 09:23:19;;;;;;;7.65;3.65;;;;;;;24.76;40.97;93915.66;4986792;28;20079;-77
2023/08/17 09:25:46;;;;;;;7.00;3.80;;;;;;;24.87;40.89;93923.72;4994257;28;20039;-77
2023/08/17 09:28:14;;;;;;;9.75;3.35;;;;;;;24.87;40.98;93925.66;4989493;28;20511;-78
2023/08/17 09:30:50;;;;;;;23.25;4.60;;;;;;;24.98;40.13;93918.94;4995199;28;20068;-77
2023/08/17 09:33:15;;;;;;;7.65;2.88;;;;;;;24.76;39.81;93888.44;4979344;28;20401;-77
2023/08/17 09:35:42;;;;;;;7.38;3.35;;;;;;;25.00;39.88;93907.66;5000572;28;20050;-77
2023/08/17 09:38:07;;;;;;;16.67;4.10;;;;;;;24.70;40.06;93849.22;5001540;28;20128;-77
2023/08/17 09:40:32;;;;;;;4.47;2.83;;;;;;;24.92;39.67;93906.97;4995711;28;20567;-81
2023/08/17 09:42:58;;;;;;;12.35;3.30;;;;;;;25.24;39.74;93904.72;5000168;28;20044;-79
2023/08/17 09:45:25;;;;;;;45.70;8.15;;;;;;;25.29;39.00;93895.34;5000392;28;20846;-78
2023/08/17 09:47:51;;;;;;;6.57;2.63;;;;;;;24.99;38.65;93897.94;4997108;28;20145;-79
2023/08/17 09:50:16;;;;;;;13.65;2.53;;;;;;;25.06;38.81;93895.19;4994638;28;20024;-78
2023/08/17 09:52:42;;;;;;;12.75;3.65;;;;;;;25.02;39.06;93872.69;4994164;28;20394;-79
2023/08/17 09:55:09;;;;;;;7.10;2.70;;;;;;;25.06;38.80;93878.84;4994575;28;20077;-82
2023/08/17 09:57:36;;;;;;;8.95;2.90;;;;;;;25.34;38.61;93884.03;4993897;28;20403;-80
2023/08/17 10:00:02;;;;;;;3.90;1.90;;;;;;;25.59;37.77;93889.97;4993196;28;20032;-80
2023/08/17 10:02:29;;;;;;;15.32;3.35;;;;;;;25.70;37.41;93885.19;4995162;28;20032;-79
2023/08/17 10:04:57;;;;;;;7.22;2.50;;;;;;;25.80;37.16;93883.50;4994125;28;20038;-81
2023/08/17 10:07:28;;;;;;;5.57;2.10;;;;;;;25.74;36.86;93868.03;4999952;28;20030;-78
2023/08/17 10:10:03;;;;;;;421.70;55.17;;;;;;;25.63;36.24;93879.03;4990477;28;20125;-79
2023/08/17 10:12:36;;;;;;;276.73;23.88;;;;;;;25.87;36.84;93883.41;4993397;28;20375;-79
2023/08/17 10:15:10;;;;;;;14.88;3.58;;;;;;;25.79;36.35;93851.22;4994521;28;20554;-81
2023/08/17 10:17:43;;;;;;;7.63;2.70;;;;;;;26.13;36.78;93871.03;4993157;28;20116;-79
2023/08/17 10:20:10;;;;;;;6.68;2.78;;;;;;;25.91;35.73;93878.72;4983321;28;20121;-79
2023/08/17 10:22:54;;;;;;;4.90;2.20;;;;;;;26.05;35.73;93873.09;4992801;28;20040;-79
2023/08/17 10:25:21;;;;;;;19.10;3.22;;;;;;;26.11;35.58;93874.16;4994167;28;20061;-80
2023/08/17 10:27:49;;;;;;;10.40;2.85;;;;;;;26.23;35.64;93878.28;4994366;28;20445;-79
2023/08/17 10:30:14;;;;;;;6.13;2.47;;;;;;;26.09;35.05;93864.88;4998647;28;20039;-79
2023/08/17 10:32:44;;;;;;;3.97;2.63;;;;;;;26.08;35.38;93866.03;4994467;28;20138;-81
2023/08/17 10:35:10;;;;;;;5.18;2.25;;;;;;;26.33;35.90;93854.78;4996472;28;20050;-78
2023/08/17 10:37:38;;;;;;;6.35;2.90;;;;;;;26.51;35.43;93874.41;4992507;28;20046;-79
2023/08/17 10:40:04;;;;;;;6.57;2.53;;;;;;;26.40;34.64;93874.53;4982860;28;20076;-76
2023/08/17 10:42:35;;;;;;;7.47;2.67;;;;;;;26.31;34.92;93857.91;4989717;28;20366;-77
2023/08/17 10:45:29;;;;;;;4.18;2.47;;;;;;;26.57;34.12;93880.16;4987087;28;20034;-80
2023/08/17 10:48:07;;;;;;;3.33;2.63;;;;;;;26.50;34.21;93868.16;4968422;28;20162;-78
2023/08/17 10:50:33;;;;;;;4.40;2.20;;;;;;;26.15;34.20;93859.72;4981858;28;20130;-77
2023/08/17 10:53:04;;;;;;;5.72;1.90;;;;;;;26.19;34.06;93866.69;4992927;28;20127;-77
2023/08/17 10:55:41;;;;;;;4.32;2.30;;;;;;;26.20;34.78;93857.31;4973231;28;20430;-80
2023/08/17 10:58:10;;;;;;;4.57;2.17;;;;;;;26.39;34.71;93847.69;4994248;28;20032;-80
2023/08/17 11:00:41;;;;;;;3.40;2.22;;;;;;;26.39;34.24;93859.38;4990708;28;20566;-79
2023/08/17 11:03:09;;;;;;;5.53;1.98;;;;;;;26.40;33.88;93852.72;4992280;28;20049;-81
2023/08/17 11:05:41;;;;;;;4.28;1.60;;;;;;;26.38;33.85;93860.56;4991373;28;20048;-78
2023/08/17 11:08:11;;;;;;;11.23;2.33;;;;;;;26.33;33.40;93839.19;4985628;28;20031;-81
2023/08/17 11:10:38;;;;;;;17.60;4.05;;;;;;;26.43;33.42;93848.41;4986388;28;20130;-77
2023/08/17 11:13:04;;;;;;;6.30;2.20;;;;;;;26.22;33.68;93835.09;4990258;28;20124;-78
2023/08/17 11:15:44;;;;;;;10.68;2.67;;;;;;;26.16;34.34;93842.94;4992199;28;20559;-76
2023/08/17 11:18:11;;;;;;;10.77;2.40;;;;;;;26.37;34.33;93856.28;4985411;28;20052;-78
2023/08/17 11:20:39;;;;;;;16.27;4.43;;;;;;;26.48;34.34;93847.97;4988494;28;20029;-80
2023/08/17 11:23:09;;;;;;;4.78;2.20;;;;;;;26.59;33.51;93836.91;4987395;28;20080;-77
2023/08/17 11:25:36;;;;;;;6.68;2.50;;;;;;;26.57;33.57;93831.84;4989295;28;20035;-77
2023/08/17 11:28:06;;;;;;;6.10;2.28;;;;;;;26.55;33.61;93812.38;4983547;28;20081;-80
2023/08/17 11:30:34;;;;;;;13.98;2.55;;;;;;;26.82;34.56;93842.34;4990069;28;20034;-78